O'tomne en Savoie LA FECLAZ (73) - D

Date : 29/09/2012
Distance : 2,100 km

Place Nom Licence Catégorie Club Temps min/km CN à J-60 Points Différence Nouveau CN
1 DROIN Solène 17925 D16 4201RA 0:20:49 9'54 5692 7899 +2207 6179
2 PERRIN Mathieu 8976 H14 4201RA 0:22:53 10'53 6191 7186 +995 6575
3 BODY Mathilde 10184 D16 7305RA 0:23:57 11'24 5805 6866 +1061 6188
4 BORNARD Julie 9402 D16 7305RA 0:26:10 12'27 5220 6284 +1064 5629
5 MASLIAH Raphaël 26389 H14 2610RA 0:26:20 12'32 5200 6244 +1044 5544
6 MASCARELL Henri 8928 H60 6911RA 0:27:02 12'52 5890 6082 +192 5789
7 GHIBAUDO Simon 20917 H14 4203RA 0:27:38 13'09 4236 5950 +1714 4395
8 VALETTE Marion 10430 D16 6913RA 0:28:17 13'28 4501 5814 +1313 4708
9 VUITTON Marie 18842 D14 6911RA 0:28:26 13'32 4767 5783 +1016 5216
10 BASSET Fiona 23384 D16 6911RA 0:28:44 13'40 5135 5723 +588 5303
11 STARKE Paula 26505 D16 6913RA 0:29:45 14'10 5527 0
12 GENNARO Mathis 22689 H12 3811RA 0:31:53 15'10 4443 5157 +714 4529
13 BONORA Marine 11542 D16 6906RA 0:33:47 16'05 4202 4867 +665 4467
14 GOLMARD Christian 2669 H65 2101BO 0:34:08 16'15 4871 4817 -54 4577
15 PONCET Jean-Pierre 16756 H65 3913FC 0:35:17 16'48 6350 4660 -1690 5867
16 DUDOIGNON Chloé 18089 D14 2605RA 0:35:32 16'55 4004 4627 +623 4260
17 ROCHE Maxime 15418 H14 6911RA 0:35:54 17'05 4448 4580 +132 4630
18 GASTINI gaetan 24931 H16 7307RA 0:36:08 17'12 2912 4551 +1639 3315
19 GINTZBURGER Colas 25057 H14 7407RA 0:36:54 17'34 2838 4456 +1618 2945
20 COMBET Annie 813 D50 4203RA 0:37:39 17'55 4816 4367 -449 4816
21 BONORA Lise 11543 D14 6906RA 0:37:57 18'04 3143 4333 +1190 3586
22 BASSET Juliette 12398 D14 6911RA 0:38:36 18'22 4528 4260 -268 4528
23 EUZEN J-Paul 16403 H70 6911RA 0:40:39 19'21 2904 4045 +1141 3121
24 SUCHET Gaspard 15343 H14 4204RA 0:40:59 19'30 1901 4012 +2111 2304
25 MOREAU Merlin 19584 H14 2605RA 0:42:00 20'00 3654 3915 +261 3827
26 PITAVAL Sylvie 12060 D50 4201RA 0:43:14 20'35 3956 3803 -153 3813
27 ANTOINE Alain 1270 H65 2605RA 0:43:39 20'47 5154 3767 -1387 5154
28 PONCET Catherine 16755 D50 3913FC 0:44:01 20'57 3544 3736 +192 3633
29 JACOMINO Mireille 277 D50 3801RA 0:44:53 21'22 4555 3663 -892 4555
30 DIDIER Marion 19566 D14 7305RA 0:44:57 21'24 3078 3658 +580 3294
31 BORNARD Fabienne 8427 D40 7305RA 0:45:03 21'27 3001 3650 +649 3079
32 TESSIER Jean-marc 23870 H40 3801RA 0:46:34 22'10 3178 3531 +353 3158
33 ROUX Marie Françoise 25236 D50 4201RA 0:47:50 22'46 4054 3438 -616 4054
34 ANNE Roger 1673 H60 0111RA 0:47:57 22'50 4857 3429 -1428 4857
35 GASTINI benjamin 24929 H16 7307RA 0:51:47 24'39 3468 3175 -293 3334
36 GUET Martine 11810 D55 6906RA 0:52:14 24'52 3027 3148 +121 3111
37 CORBIN Emma 20916 D14 2604RA 0:52:19 24'54 2916 3143 +227 2846
38 VILLEDIEU Martine 13752 D55 6913RA 0:53:32 25'29 3904 3072 -832 3904
39 MARGUERETTAZ Candice 26519 D14 7404RA 0:55:00 26'11 2990 0
40 RINGOT Veronique 12356 D45 6913RA 0:55:09 26'15 3343 2981 -362 3001
41 BOURRIN M-Francoise 807 D55 4203RA 0:58:53 28'02 3248 2792 -456 3345
42 LE GLAND Louise 22186 D14 7404RA 0:58:55 28'03 2073 2791 +718 2429
43 NICOLAS Léa 18641 D18 7407RA 0:59:06 28'08 0 2782 2671
44 SLIMAN Jacques 4537 H60 0503PR 1:01:11 29'08 4124 2687 -1437 4071
45 FERRAND M-Christine 8626 D55 3811RA 1:01:18 29'11 3357 2682 -675 3095
46 RIVOLLIER Isaline 22451 D16 4201RA 1:01:35 29'19 4550 2670 -1880 4550
47 DESCOURVIERES Perrine 25550 D16 7407RA 1:02:35 29'48 2150 2627 +477 2317
48 VORWERK Camille 25747 D14 4201RA 1:03:15 30'07 1232 2600 +1368 1494
49 LENFANT Chantal 10264 D55 3811RA 1:04:34 30'44 3234 2547 -687 2928
50 PERREARD-GARIN Soraya 25343 D14 7407RA 1:06:21 31'35 2027 2478 +451 2255
51 LEVESY Salomé 23127 D14 3810RA 1:15:10 35'47 2822 2188 -634 2822
52 GIBIAT Danielle 3547 D55 8405PR 1:16:08 36'15 3617 2160 -1457 3409
53 DUFOUR Marie 26623 D16 7407RA 1:16:26 36'23 2151 0
54 GREFF Maël 25096 H14 0111RA 1:17:23 36'50 1517 2125 +608 1719
55 BOURRIN Michel 809 H60 4203RA 1:17:45 37'01 1783 2115 +332 1918
56 CATMUR virginia 25103 D55 0503PR 1:21:02 38'35 1935 2029 +94 2020
57 LUCATELLI Elea 23840 D21 3810RA 1:23:08 39'35 2080 1978 -102 2187
58 TESSIER Christel 23871 D40 3801RA 1:39:54 47'34 2929 1646 -1283 2818
59 BOUCHERLE Ghislaine 4479 D60 3801RA 1:40:16 47'44 3311 1640 -1671 3311
60 RIVOLLIER Stéphanie 24185 D40 4201RA 1:52:01 53'20 1468 0
61 DROIN Marie-helene 21209 D45 4201RA 1:54:02 54'18 0 1442 1202
BASSET Noëllie 24039 D14 6911RA pm None 2202 0 2001
SINIBALDI Marc 1347 H70 3801RA pm None 5301 0 5301
VORWERK Marine 25746 D14 4201RA pm None 1488 0 1518